createdAt,value
2023-03-01T00:01:52.270Z,93.85
2023-03-01T00:04:18.660Z,93.98
2023-03-01T00:06:47.244Z,93.57
2023-03-01T00:09:13.597Z,92.77
2023-03-01T00:11:39.956Z,93.19
2023-03-01T00:14:07.733Z,93.86
2023-03-01T00:16:37.295Z,93.80
2023-03-01T00:19:03.668Z,94.93
2023-03-01T00:21:30.013Z,95.34
2023-03-01T00:23:56.386Z,96.46
2023-03-01T00:26:22.725Z,96.44
2023-03-01T00:28:49.107Z,95.99
2023-03-01T00:31:15.437Z,95.78
2023-03-01T00:33:41.790Z,94.81
2023-03-01T00:36:08.175Z,94.82
2023-03-01T00:38:34.489Z,95.37
2023-03-01T00:41:00.847Z,95.14
2023-03-01T00:43:27.186Z,94.21
2023-03-01T00:45:53.537Z,94.80
2023-03-01T00:48:19.908Z,95.35
2023-03-01T00:50:46.255Z,95.57
2023-03-01T00:53:12.597Z,95.18
2023-03-01T00:55:39.004Z,96.38
2023-03-01T00:58:05.341Z,96.54
2023-03-01T01:00:31.705Z,96.24
2023-03-01T01:02:58.071Z,95.23
2023-03-01T01:05:24.448Z,96.28
2023-03-01T01:07:50.876Z,97.17
2023-03-01T01:10:22.029Z,97.62
2023-03-01T01:12:48.378Z,97.29
2023-03-01T01:15:16.730Z,96.54
2023-03-01T01:17:43.054Z,96.04
2023-03-01T01:20:09.451Z,96.35
2023-03-01T01:22:35.792Z,96.37
2023-03-01T01:25:02.180Z,96.85
2023-03-01T01:27:28.513Z,97.61
2023-03-01T01:29:54.903Z,96.80
2023-03-01T01:32:21.266Z,96.44
2023-03-01T01:34:47.779Z,96.34
2023-03-01T01:37:14.179Z,95.80
2023-03-01T01:39:40.529Z,95.62
2023-03-01T01:42:06.885Z,96.00
2023-03-01T01:44:33.230Z,97.53
2023-03-01T01:46:59.566Z,97.78
2023-03-01T01:49:25.900Z,96.67
2023-03-01T01:51:52.253Z,96.15
2023-03-01T01:54:18.599Z,95.54
2023-03-01T01:56:44.960Z,94.59
2023-03-01T01:59:11.293Z,94.27
2023-03-01T02:01:37.624Z,94.17
2023-03-01T02:04:03.969Z,94.90
2023-03-01T02:06:30.686Z,95.49
2023-03-01T02:08:57.254Z,96.12
2023-03-01T02:11:23.572Z,95.95
2023-03-01T02:13:50.311Z,94.73
2023-03-01T02:16:16.698Z,95.50
2023-03-01T02:18:43.118Z,96.22
2023-03-01T02:21:09.475Z,96.31
2023-03-01T02:23:35.836Z,95.51
2023-03-01T02:26:02.171Z,95.61
2023-03-01T02:28:28.508Z,95.41
2023-03-01T02:31:13.867Z,96.62
2023-03-01T02:33:40.247Z,97.85
2023-03-01T02:36:06.574Z,98.28
2023-03-01T02:38:32.972Z,97.77
2023-03-01T02:40:59.299Z,96.79
2023-03-01T02:43:25.640Z,95.65
2023-03-01T02:45:52.094Z,95.73
2023-03-01T02:48:18.636Z,95.78
2023-03-01T02:50:45.025Z,95.58
2023-03-01T02:53:11.383Z,95.06
2023-03-01T02:55:37.692Z,96.56
2023-03-01T02:58:04.079Z,96.94
2023-03-01T03:00:30.539Z,96.87
2023-03-01T03:02:58.275Z,96.32
2023-03-01T03:05:24.838Z,95.47
2023-03-01T03:07:51.224Z,95.76
2023-03-01T03:10:17.557Z,96.46
2023-03-01T03:12:43.943Z,97.50
2023-03-01T03:15:10.285Z,99.13
2023-03-01T03:17:36.644Z,98.22
2023-03-01T03:20:04.266Z,96.63
2023-03-01T03:22:30.766Z,95.09
2023-03-01T03:24:57.110Z,95.24
2023-03-01T03:27:23.479Z,95.78
2023-03-01T03:29:50.502Z,96.15
2023-03-01T03:32:16.848Z,94.73
2023-03-01T03:34:43.247Z,93.81
2023-03-01T03:37:29.595Z,94.22
2023-03-01T03:39:55.999Z,95.12
2023-03-01T03:42:23.100Z,96.23
2023-03-01T03:44:49.474Z,95.85
2023-03-01T03:47:15.833Z,94.64
2023-03-01T03:49:42.159Z,94.84
2023-03-01T03:52:14.437Z,95.15
2023-03-01T03:54:40.829Z,95.97
2023-03-01T03:57:07.238Z,95.07
2023-03-01T03:59:33.610Z,94.75
2023-03-01T04:02:00.187Z,95.44
2023-03-01T04:04:26.629Z,95.63
2023-03-01T04:06:52.957Z,95.35
2023-03-01T04:09:19.293Z,94.70
2023-03-01T04:11:45.665Z,95.43
2023-03-01T04:14:12.083Z,95.05
2023-03-01T04:16:38.460Z,94.56
2023-03-01T04:19:07.481Z,94.33
2023-03-01T04:21:33.911Z,94.63
2023-03-01T04:24:00.354Z,94.88
2023-03-01T04:26:28.095Z,95.54
2023-03-01T04:28:54.456Z,95.61
2023-03-01T04:31:22.515Z,94.67
2023-03-01T04:33:49.096Z,93.47
2023-03-01T04:36:15.535Z,93.51
2023-03-01T04:38:41.943Z,95.17
2023-03-01T04:41:08.320Z,96.51
2023-03-01T04:43:35.220Z,96.47
2023-03-01T04:46:03.945Z,96.05
2023-03-01T04:48:30.358Z,94.78
2023-03-01T04:50:56.810Z,94.49
2023-03-01T04:53:23.166Z,94.40
2023-03-01T04:55:49.469Z,95.35
2023-03-01T04:58:15.802Z,96.14
2023-03-01T05:00:42.143Z,96.61
2023-03-01T05:03:08.464Z,96.65
2023-03-01T05:05:34.872Z,97.32
2023-03-01T05:08:01.243Z,96.36
2023-03-01T05:10:27.615Z,96.70
2023-03-01T05:12:54.130Z,96.23
2023-03-01T05:15:22.803Z,95.57
2023-03-01T05:17:49.164Z,95.15
2023-03-01T05:20:15.551Z,96.18
2023-03-01T05:22:41.940Z,97.13
2023-03-01T05:25:08.358Z,96.76
2023-03-01T05:27:34.707Z,95.48
2023-03-01T05:30:14.358Z,95.57
2023-03-01T05:32:40.790Z,97.39
2023-03-01T05:35:07.142Z,95.89
2023-03-01T05:37:33.494Z,94.91
2023-03-01T05:39:59.789Z,95.12
2023-03-01T05:42:26.130Z,94.71
2023-03-01T05:44:52.526Z,95.50
2023-03-01T05:47:18.916Z,96.10
2023-03-01T05:49:45.251Z,95.77
2023-03-01T05:52:11.621Z,94.74
2023-03-01T05:54:37.950Z,94.08
2023-03-01T05:57:04.292Z,93.84
2023-03-01T05:59:30.890Z,94.76
2023-03-01T06:01:57.292Z,95.99
2023-03-01T06:04:23.671Z,96.07
2023-03-01T06:06:50.140Z,96.15
2023-03-01T06:09:16.848Z,96.47
2023-03-01T06:11:43.195Z,95.41
2023-03-01T06:14:09.588Z,95.54
2023-03-01T06:16:35.994Z,96.24
2023-03-01T06:19:02.414Z,95.99
2023-03-01T06:21:28.796Z,94.52
2023-03-01T06:23:55.246Z,93.34
2023-03-01T06:26:21.666Z,93.45
2023-03-01T06:28:48.016Z,93.81
2023-03-01T06:31:14.502Z,93.49
2023-03-01T06:33:40.929Z,92.47
2023-03-01T06:36:07.326Z,92.35
2023-03-01T06:38:33.666Z,92.40
2023-03-01T06:41:00.117Z,92.19
2023-03-01T06:43:26.477Z,91.89
2023-03-01T06:45:52.821Z,91.13
2023-03-01T06:48:19.179Z,91.67
2023-03-01T06:50:45.643Z,92.22
2023-03-01T06:53:12.099Z,92.68
2023-03-01T06:55:38.454Z,93.94
2023-03-01T06:58:04.849Z,94.24
2023-03-01T07:00:31.269Z,93.60
2023-03-01T07:02:57.629Z,93.24
2023-03-01T07:05:24.018Z,93.60
2023-03-01T07:07:50.356Z,92.09
2023-03-01T07:10:16.703Z,91.44
2023-03-01T07:12:43.038Z,91.47
2023-03-01T07:15:10.518Z,90.68
2023-03-01T07:17:36.887Z,90.89
2023-03-01T07:20:03.277Z,90.80
2023-03-01T07:22:29.654Z,89.33
2023-03-01T07:24:56.044Z,88.62
2023-03-01T07:27:22.364Z,88.24
2023-03-01T07:29:48.748Z,86.22
2023-03-01T07:32:15.160Z,86.19
2023-03-01T07:34:41.595Z,85.19
2023-03-01T07:37:08.029Z,84.22
2023-03-01T07:39:34.395Z,83.07
2023-03-01T07:42:00.789Z,82.19
2023-03-01T07:44:27.213Z,80.74
2023-03-01T07:46:57.425Z,80.28
2023-03-01T07:49:23.948Z,80.72
2023-03-01T07:51:50.354Z,81.55
2023-03-01T07:54:16.712Z,81.84
2023-03-01T07:56:43.072Z,81.66
2023-03-01T07:59:09.481Z,81.27
2023-03-01T08:01:35.862Z,80.44
2023-03-01T08:04:02.868Z,79.12
2023-03-01T08:06:29.483Z,79.78
2023-03-01T08:08:56.553Z,78.48
2023-03-01T08:11:22.974Z,77.11
2023-03-01T08:13:51.394Z,77.44
2023-03-01T08:16:18.751Z,77.28
2023-03-01T08:18:45.151Z,76.89
2023-03-01T08:21:11.523Z,77.69
2023-03-01T08:23:37.860Z,78.29
2023-03-01T08:26:04.419Z,76.05
2023-03-01T08:28:30.746Z,75.67
2023-03-01T08:30:57.100Z,75.27
2023-03-01T08:33:23.535Z,75.85
2023-03-01T08:35:49.964Z,75.58
2023-03-01T08:38:16.452Z,74.07
2023-03-01T08:40:42.781Z,75.40
2023-03-01T08:43:09.114Z,74.97
2023-03-01T08:45:35.704Z,73.40
2023-03-01T08:48:02.030Z,71.93
2023-03-01T08:50:28.426Z,71.42
2023-03-01T08:52:54.766Z,71.03
2023-03-01T08:55:21.172Z,70.54
2023-03-01T08:57:47.511Z,69.79
2023-03-01T09:00:16.042Z,73.17
2023-03-01T09:02:42.405Z,73.10
2023-03-01T09:05:08.832Z,70.41
2023-03-01T09:07:35.245Z,68.99
2023-03-01T09:10:01.581Z,69.45
2023-03-01T09:12:28.003Z,69.48
2023-03-01T09:14:54.369Z,68.50
2023-03-01T09:17:22.718Z,66.91
2023-03-01T09:19:49.703Z,69.29
2023-03-01T09:22:16.155Z,70.32
2023-03-01T09:24:42.674Z,73.75
2023-03-01T09:27:09.890Z,67.17
2023-03-01T09:29:36.222Z,65.66
2023-03-01T09:32:02.622Z,65.29
2023-03-01T09:34:29.118Z,69.07
2023-03-01T09:36:55.441Z,69.04
2023-03-01T09:39:21.824Z,67.26
2023-03-01T09:41:48.226Z,66.73
2023-03-01T09:44:14.715Z,67.35
2023-03-01T09:46:41.069Z,63.73
2023-03-01T09:49:07.421Z,63.16
2023-03-01T09:51:33.742Z,63.31
2023-03-01T09:54:01.944Z,62.79
2023-03-01T09:56:28.389Z,61.49
2023-03-01T09:58:55.022Z,61.72
2023-03-01T10:01:21.472Z,60.77
2023-03-01T10:03:47.859Z,62.69
2023-03-01T10:06:27.371Z,65.57
2023-03-01T10:08:58.784Z,64.35
2023-03-01T10:11:25.484Z,62.23
2023-03-01T10:13:54.040Z,61.04
2023-03-01T10:16:21.962Z,59.92
2023-03-01T10:18:48.380Z,62.85
2023-03-01T10:21:14.723Z,60.43
2023-03-01T10:23:41.053Z,59.33
2023-03-01T10:26:07.418Z,59.61
2023-03-01T10:28:33.874Z,58.89
2023-03-01T10:31:00.352Z,57.36
2023-03-01T10:33:26.746Z,57.75
2023-03-01T10:35:53.148Z,59.22
2023-03-01T10:38:19.939Z,58.07
2023-03-01T10:40:46.293Z,57.32
2023-03-01T10:43:12.965Z,57.04
2023-03-01T10:45:39.343Z,57.09
2023-03-01T10:48:05.698Z,57.38
2023-03-01T10:50:32.067Z,56.85
2023-03-01T10:52:58.410Z,56.09
2023-03-01T10:55:25.259Z,56.26
2023-03-01T10:57:51.962Z,57.70
2023-03-01T11:00:21.830Z,57.55
2023-03-01T11:02:48.350Z,55.72
2023-03-01T11:05:14.698Z,55.99
2023-03-01T11:07:41.089Z,55.82
2023-03-01T11:10:07.401Z,53.55
2023-03-01T11:12:34.434Z,53.71
2023-03-01T11:15:00.765Z,53.28
2023-03-01T11:17:27.099Z,53.91
2023-03-01T11:20:02.190Z,52.54
2023-03-01T11:22:29.149Z,53.09
2023-03-01T11:25:09.088Z,52.02
2023-03-01T11:27:39.389Z,52.43
2023-03-01T11:30:06.480Z,53.34
2023-03-01T11:32:32.844Z,52.18
2023-03-01T11:34:59.336Z,51.29
2023-03-01T11:37:26.070Z,50.63
2023-03-01T11:39:53.234Z,49.11
2023-03-01T11:42:19.774Z,48.85
2023-03-01T11:44:46.169Z,50.08
2023-03-01T11:47:12.607Z,50.55
2023-03-01T11:49:39.008Z,50.42
2023-03-01T11:52:05.332Z,51.06
2023-03-01T11:54:31.685Z,48.79
2023-03-01T11:56:58.100Z,48.80
2023-03-01T11:59:24.515Z,48.08
2023-03-01T12:01:51.098Z,47.32
2023-03-01T12:04:17.511Z,48.43
2023-03-01T12:06:43.890Z,47.83
2023-03-01T12:09:10.229Z,47.81
2023-03-01T12:11:36.642Z,47.91
2023-03-01T12:14:03.355Z,48.68
2023-03-01T12:16:38.856Z,47.59
2023-03-01T12:19:05.495Z,48.12
2023-03-01T12:21:32.284Z,49.12
2023-03-01T12:23:58.799Z,49.47
2023-03-01T12:26:25.126Z,50.55
2023-03-01T12:28:53.128Z,50.55
2023-03-01T12:31:21.958Z,50.45
2023-03-01T12:33:48.315Z,50.68
2023-03-01T12:36:14.736Z,50.16
2023-03-01T12:38:41.161Z,51.44
2023-03-01T12:41:07.468Z,51.12
2023-03-01T12:43:34.326Z,51.46
2023-03-01T12:46:00.779Z,51.26
2023-03-01T12:48:27.140Z,52.22
2023-03-01T12:50:53.437Z,52.50
2023-03-01T12:53:19.766Z,52.68
2023-03-01T12:55:46.096Z,53.23
2023-03-01T12:58:12.504Z,53.03
2023-03-01T13:00:38.819Z,52.99
2023-03-01T13:03:05.179Z,52.67
2023-03-01T13:05:31.621Z,52.99
2023-03-01T13:07:58.036Z,52.86
2023-03-01T13:10:24.358Z,51.94
2023-03-01T13:12:50.730Z,52.49
2023-03-01T13:15:17.065Z,51.58
2023-03-01T13:17:43.426Z,51.64
2023-03-01T13:20:09.933Z,51.80
2023-03-01T13:22:46.879Z,49.68
2023-03-01T13:25:19.719Z,50.17
2023-03-01T13:27:46.673Z,50.42
2023-03-01T13:30:14.126Z,49.48
2023-03-01T13:32:44.776Z,49.84
2023-03-01T13:35:11.519Z,50.45
2023-03-01T13:37:38.584Z,49.72
2023-03-01T13:40:05.971Z,49.82
2023-03-01T13:42:34.625Z,49.44
2023-03-01T13:45:01.048Z,50.17
2023-03-01T13:47:27.408Z,50.45
2023-03-01T13:49:54.473Z,50.29
2023-03-01T13:52:21.150Z,49.84
2023-03-01T13:54:47.464Z,49.51
2023-03-01T13:57:13.807Z,49.71
2023-03-01T13:59:40.199Z,49.07
2023-03-01T14:02:06.514Z,49.02
2023-03-01T14:04:33.337Z,49.61
2023-03-01T14:06:59.668Z,50.49
2023-03-01T14:09:26.056Z,50.20
2023-03-01T14:11:52.420Z,50.01
2023-03-01T14:14:18.860Z,49.50
2023-03-01T14:16:46.011Z,49.50
2023-03-01T14:19:16.051Z,49.84
2023-03-01T14:21:44.365Z,50.77
2023-03-01T14:24:10.708Z,51.07
2023-03-01T14:26:37.045Z,48.86
2023-03-01T14:29:03.376Z,47.89
2023-03-01T14:31:29.727Z,47.93
2023-03-01T14:33:56.063Z,47.51
2023-03-01T14:36:22.434Z,47.87
2023-03-01T14:38:48.849Z,48.83
2023-03-01T14:41:16.282Z,48.29
2023-03-01T14:43:42.636Z,48.34
2023-03-01T14:46:09.056Z,48.37
2023-03-01T14:48:35.404Z,48.80
2023-03-01T14:51:01.816Z,48.63
2023-03-01T14:53:28.135Z,48.66
2023-03-01T14:55:54.510Z,49.38
2023-03-01T14:58:22.479Z,49.88
2023-03-01T15:00:48.779Z,49.88
2023-03-01T15:03:15.230Z,49.52
2023-03-01T15:05:41.608Z,49.67
2023-03-01T15:08:07.941Z,49.59
2023-03-01T15:10:34.325Z,49.51
2023-03-01T15:13:00.639Z,49.58
2023-03-01T15:15:31.029Z,49.74
2023-03-01T15:17:57.404Z,49.78
2023-03-01T15:20:26.701Z,49.41
2023-03-01T15:22:53.044Z,49.95
2023-03-01T15:25:19.429Z,49.90
2023-03-01T15:27:45.766Z,49.41
2023-03-01T15:30:12.083Z,49.12
2023-03-01T15:32:40.274Z,49.64
2023-03-01T15:35:06.600Z,49.83
2023-03-01T15:37:32.913Z,49.93
2023-03-01T15:39:59.246Z,50.00
2023-03-01T15:42:25.552Z,49.66
2023-03-01T15:44:51.872Z,50.03
2023-03-01T15:47:18.218Z,49.93
2023-03-01T15:49:54.352Z,50.43
2023-03-01T15:52:21.698Z,50.82
2023-03-01T15:54:48.036Z,50.66
2023-03-01T15:57:15.958Z,50.63
2023-03-01T15:59:42.929Z,50.62
2023-03-01T16:02:10.130Z,50.97
2023-03-01T16:04:36.461Z,50.49
2023-03-01T16:07:02.813Z,50.88
2023-03-01T16:09:29.199Z,50.59
2023-03-01T16:11:55.522Z,50.29
2023-03-01T16:14:21.969Z,51.11
2023-03-01T16:16:49.142Z,50.34
2023-03-01T16:19:15.766Z,50.72
2023-03-01T16:21:43.230Z,50.74
2023-03-01T16:24:09.639Z,50.97
2023-03-01T16:26:35.943Z,51.20
2023-03-01T16:29:02.273Z,51.69
2023-03-01T16:31:30.116Z,51.35
2023-03-01T16:33:57.032Z,52.61
2023-03-01T16:36:24.856Z,53.01
2023-03-01T16:38:51.195Z,53.28
2023-03-01T16:41:17.551Z,53.90
2023-03-01T16:43:43.924Z,53.19
2023-03-01T16:46:10.300Z,53.63
2023-03-01T16:48:36.647Z,54.86
2023-03-01T16:51:03.021Z,53.82
2023-03-01T16:53:29.430Z,53.64
2023-03-01T16:55:55.790Z,52.55
2023-03-01T16:58:22.190Z,53.65
2023-03-01T17:00:48.662Z,54.35
2023-03-01T17:03:15.129Z,53.58
2023-03-01T17:05:41.488Z,53.96
2023-03-01T17:08:11.452Z,54.79
2023-03-01T17:10:37.781Z,56.47
2023-03-01T17:13:04.817Z,57.65
2023-03-01T17:15:31.136Z,57.54
2023-03-01T17:17:57.607Z,57.39
2023-03-01T17:20:23.969Z,57.39
2023-03-01T17:22:50.489Z,57.49
2023-03-01T17:25:16.844Z,57.11
2023-03-01T17:27:43.166Z,58.51
2023-03-01T17:30:09.503Z,59.77
2023-03-01T17:32:36.025Z,59.51
2023-03-01T17:35:02.417Z,59.72
2023-03-01T17:37:28.735Z,60.64
2023-03-01T17:39:55.168Z,61.87
2023-03-01T17:42:21.535Z,63.43
2023-03-01T17:44:48.055Z,63.99
2023-03-01T17:47:14.787Z,64.47
2023-03-01T17:49:41.329Z,64.53
2023-03-01T17:52:07.726Z,65.06
2023-03-01T17:54:34.037Z,65.09
2023-03-01T17:57:00.339Z,64.58
2023-03-01T17:59:31.668Z,64.80
2023-03-01T18:01:58.330Z,65.35
2023-03-01T18:04:24.704Z,65.71
2023-03-01T18:06:51.116Z,66.25
2023-03-01T18:09:17.512Z,66.19
2023-03-01T18:11:46.726Z,66.67
2023-03-01T18:14:13.916Z,67.68
2023-03-01T18:16:40.376Z,67.90
2023-03-01T18:19:06.965Z,67.75
2023-03-01T18:21:34.175Z,67.77
2023-03-01T18:24:00.864Z,68.70
2023-03-01T18:26:28.049Z,69.20
2023-03-01T18:28:54.638Z,69.55
2023-03-01T18:31:22.486Z,70.32
2023-03-01T18:33:49.188Z,69.58
2023-03-01T18:36:15.514Z,69.04
2023-03-01T18:38:42.109Z,69.41
2023-03-01T18:41:08.556Z,68.98
2023-03-01T18:43:35.159Z,69.63
2023-03-01T18:46:01.857Z,69.47
2023-03-01T18:48:30.134Z,70.07
2023-03-01T18:50:56.674Z,71.04
2023-03-01T18:53:23.247Z,70.78
2023-03-01T18:55:49.621Z,70.03
2023-03-01T18:58:16.147Z,70.03
2023-03-01T19:00:43.982Z,70.32
2023-03-01T19:03:12.901Z,69.96
2023-03-01T19:05:41.202Z,72.11
2023-03-01T19:08:09.396Z,71.79
2023-03-01T19:10:37.306Z,72.12
2023-03-01T19:13:04.060Z,72.16
2023-03-01T19:15:30.685Z,72.23
2023-03-01T19:17:59.171Z,71.33
2023-03-01T19:20:26.706Z,73.23
2023-03-01T19:22:54.253Z,72.75
2023-03-01T19:25:20.886Z,72.48
2023-03-01T19:27:49.645Z,72.53
2023-03-01T19:30:16.751Z,72.91
2023-03-01T19:32:43.783Z,73.38
2023-03-01T19:35:11.197Z,73.26
2023-03-01T19:37:39.050Z,72.52
2023-03-01T19:40:06.134Z,73.17
2023-03-01T19:42:32.714Z,74.14
2023-03-01T19:45:02.151Z,73.55
2023-03-01T19:47:31.202Z,73.30
2023-03-01T19:49:59.278Z,74.04
2023-03-01T19:52:26.545Z,74.65
2023-03-01T19:54:55.837Z,74.80
2023-03-01T19:57:31.347Z,75.07
2023-03-01T19:59:58.413Z,75.65
2023-03-01T20:02:27.916Z,75.93
2023-03-01T20:04:56.926Z,76.62
2023-03-01T20:07:25.337Z,77.88
2023-03-01T20:09:53.008Z,77.47
2023-03-01T20:12:19.967Z,78.02
2023-03-01T20:14:48.993Z,78.80
2023-03-01T20:17:16.584Z,79.55
2023-03-01T20:19:43.584Z,79.27
2023-03-01T20:22:12.262Z,80.17
2023-03-01T20:24:40.505Z,80.37
2023-03-01T20:27:09.166Z,80.16
2023-03-01T20:29:36.403Z,79.89
2023-03-01T20:32:04.108Z,79.30
2023-03-01T20:34:31.822Z,79.63
2023-03-01T20:36:59.295Z,79.65
2023-03-01T20:39:27.212Z,80.10
2023-03-01T20:41:55.760Z,80.16
2023-03-01T20:44:24.181Z,81.29
2023-03-01T20:46:52.804Z,82.26
2023-03-01T20:49:22.479Z,82.28
2023-03-01T20:51:49.904Z,81.44
2023-03-01T20:54:16.869Z,81.13
2023-03-01T20:56:45.162Z,81.08
2023-03-01T20:59:12.653Z,82.16
2023-03-01T21:01:40.141Z,82.32
2023-03-01T21:04:07.728Z,82.37
2023-03-01T21:06:34.881Z,82.27
2023-03-01T21:09:02.159Z,82.67
2023-03-01T21:11:29.519Z,82.90
2023-03-01T21:13:56.735Z,83.29
2023-03-01T21:16:24.130Z,83.24
2023-03-01T21:18:51.175Z,83.62
2023-03-01T21:21:18.030Z,84.66
2023-03-01T21:23:45.063Z,83.82
2023-03-01T21:26:12.145Z,84.04
2023-03-01T21:28:38.667Z,84.58
2023-03-01T21:31:05.210Z,85.23
2023-03-01T21:33:31.765Z,84.53
2023-03-01T21:35:58.441Z,84.95
2023-03-01T21:38:25.086Z,85.75
2023-03-01T21:40:51.488Z,85.08
2023-03-01T21:43:17.833Z,86.10
2023-03-01T21:45:44.276Z,85.44
2023-03-01T21:48:10.718Z,86.49
2023-03-01T21:50:37.062Z,87.02
2023-03-01T21:53:05.365Z,86.46
2023-03-01T21:55:31.768Z,86.36
2023-03-01T21:57:58.099Z,85.87
2023-03-01T22:00:24.433Z,87.38
2023-03-01T22:02:50.831Z,87.61
2023-03-01T22:05:17.237Z,88.97
2023-03-01T22:07:43.562Z,89.22
2023-03-01T22:10:09.875Z,88.52
2023-03-01T22:12:36.256Z,87.70
2023-03-01T22:15:02.557Z,87.15
2023-03-01T22:17:28.874Z,89.03
2023-03-01T22:19:55.202Z,90.83
2023-03-01T22:22:21.492Z,91.03
2023-03-01T22:24:47.806Z,89.23
2023-03-01T22:27:14.117Z,88.95
2023-03-01T22:29:40.443Z,88.65
2023-03-01T22:32:07.056Z,89.50
2023-03-01T22:34:34.756Z,89.88
2023-03-01T22:37:02.052Z,90.32
2023-03-01T22:39:28.442Z,90.22
2023-03-01T22:41:54.736Z,89.43
2023-03-01T22:44:21.621Z,88.70
2023-03-01T22:46:47.975Z,87.90
2023-03-01T22:49:14.334Z,88.24
2023-03-01T22:51:40.673Z,88.21
2023-03-01T22:54:06.978Z,88.70
2023-03-01T22:56:33.696Z,89.61
2023-03-01T22:59:00.252Z,89.25
2023-03-01T23:01:26.592Z,88.66
2023-03-01T23:03:52.904Z,89.07
2023-03-01T23:06:19.261Z,88.94
2023-03-01T23:08:45.570Z,89.82
2023-03-01T23:11:12.183Z,89.05
2023-03-01T23:13:38.519Z,89.00
2023-03-01T23:16:04.815Z,89.33
2023-03-01T23:18:31.130Z,90.50
2023-03-01T23:20:57.478Z,91.17
2023-03-01T23:23:23.810Z,90.87
2023-03-01T23:25:52.580Z,89.93
2023-03-01T23:28:18.919Z,89.13
2023-03-01T23:30:45.383Z,89.07
2023-03-01T23:33:11.784Z,89.57
2023-03-01T23:35:38.183Z,90.60
2023-03-01T23:38:04.523Z,89.49
2023-03-01T23:40:30.900Z,88.52
2023-03-01T23:42:57.215Z,88.96
2023-03-01T23:45:23.564Z,89.40
2023-03-01T23:47:49.868Z,89.51
2023-03-01T23:50:16.169Z,89.41
2023-03-01T23:52:42.578Z,88.43
2023-03-01T23:55:08.863Z,89.08
2023-03-01T23:57:35.189Z,90.34
